Corlu, Turkey
Current Conditions -  °F | °C
As of 12:50 AM on Sunday 26 Oct 2014 (Local Time) from LTBU Reporting Station
Rain Showers Rain Showers  
Wind Chill: 43°   Ceiling: 2100
Heat Index: 48°   Visibility: 6mi
Dew Point: 48°   Wind: 12mph
Humidity: 100%   Direction: 350°N
Pressure: 30"   Gusts: NA
Location:  41.17°N, 27.81°E
Report Text: LTBU 252150Z 35010KT 9999 -SHRA FEW017 BKN021 09/09 Q1016
Loading
Personal Weather Stations






























Interactive Weather Map
Tropical Storm Tracking
New forecast layout! Learn more

10-Day Weather Forecast

Advertisements
Track Severe Weather on mobile